Terminal Aerodrome Forecast
Issued by NWS

Current Version | Previous Version | Text Only | Print | Product List | Glossary Off
Versions: 1 2 3 4 5 6 7 8 9 10 11 12 13 14 15 16 17 18 19 20 21 22 23 24 25 26 27 28 29 30 31 32 33 34

000
FTUS41 KRNK 201125
TAFLWB
TAF
KLWB 201125Z 2012/2112 30006KT P6SM FEW045
     FM201300 29003KT P6SM SKC
     FM210000 VRB03KT P6SM OVC250
     FM210500 11003KT P6SM OVC050
     FM210800 10003KT 4SM -RA OVC015=

USA.gov is the U.S. government's official web portal to all federal, state and local government web resources and services.